createdAt,value
2022-08-28T00:00:03.862Z,19.70
2022-08-28T00:03:10.909Z,19.80
2022-08-28T00:05:50.542Z,19.70
2022-08-28T00:08:37.070Z,19.70
2022-08-28T00:11:31.272Z,19.60
2022-08-28T00:17:23.875Z,19.60
2022-08-28T00:22:47.292Z,19.50
2022-08-28T00:25:59.866Z,19.70
2022-08-28T00:28:58.311Z,19.60
2022-08-28T00:32:01.368Z,19.60
2022-08-28T00:34:58.537Z,19.60
2022-08-28T00:38:15.004Z,19.50
2022-08-28T00:40:59.322Z,19.60
2022-08-28T00:43:53.992Z,19.60
2022-08-28T00:50:13.054Z,19.40
2022-08-28T00:55:51.567Z,19.60
2022-08-28T00:58:46.551Z,19.50
2022-08-28T01:04:27.666Z,19.60
2022-08-28T01:10:52.041Z,19.50
2022-08-28T01:14:03.159Z,19.50
2022-08-28T01:20:38.322Z,19.60
2022-08-28T01:23:50.926Z,19.50
2022-08-28T01:26:23.381Z,19.50
2022-08-28T01:28:57.855Z,19.60
2022-08-28T01:31:36.031Z,19.60
2022-08-28T01:34:08.691Z,19.60
2022-08-28T01:40:11.875Z,19.60
2022-08-28T01:43:11.898Z,19.60
2022-08-28T01:55:24.826Z,19.60
2022-08-28T01:58:29.053Z,19.60
2022-08-28T02:01:52.646Z,19.60
2022-08-28T02:08:21.588Z,19.60
2022-08-28T02:11:27.993Z,19.50
2022-08-28T02:17:22.004Z,19.50
2022-08-28T02:20:21.929Z,19.60
2022-08-28T02:23:34.485Z,19.50
2022-08-28T02:26:27.839Z,19.50
2022-08-28T02:29:21.384Z,19.50
2022-08-28T02:32:10.698Z,19.30
2022-08-28T02:37:40.970Z,19.40
2022-08-28T02:40:23.621Z,19.50
2022-08-28T02:43:04.956Z,19.40
2022-08-28T02:46:13.483Z,19.40
2022-08-28T02:48:50.768Z,19.40
2022-08-28T02:51:47.921Z,19.50
2022-08-28T02:54:42.086Z,19.40
2022-08-28T03:03:06.242Z,19.30
2022-08-28T03:05:40.463Z,19.40
2022-08-28T03:14:45.693Z,19.30
2022-08-28T03:20:48.577Z,19.30
2022-08-28T03:23:35.112Z,19.40
2022-08-28T03:26:38.463Z,19.40
2022-08-28T03:35:51.327Z,18.80
2022-08-28T03:39:00.865Z,19.30
2022-08-28T03:41:39.376Z,19.30
2022-08-28T03:44:23.856Z,19.40
2022-08-28T03:46:56.328Z,19.30
2022-08-28T03:53:10.682Z,19.30
2022-08-28T03:56:11.398Z,19.40
2022-08-28T03:59:08.490Z,19.40
2022-08-28T04:02:13.818Z,19.40
2022-08-28T04:05:12.942Z,19.30
2022-08-28T04:13:45.414Z,19.30
2022-08-28T04:17:01.510Z,19.30
2022-08-28T04:26:29.639Z,19.30
2022-08-28T04:28:59.433Z,19.30
2022-08-28T04:31:47.661Z,19.30
2022-08-28T04:34:24.460Z,19.30
2022-08-28T04:36:55.238Z,19.30
2022-08-28T04:39:35.647Z,19.30
2022-08-28T04:43:21.963Z,19.30
2022-08-28T04:49:39.666Z,19.60
2022-08-28T04:52:21.114Z,19.40
2022-08-28T04:57:50.312Z,19.40
2022-08-28T05:00:54.159Z,19.40
2022-08-28T05:04:09.015Z,19.50
2022-08-28T05:13:51.105Z,19.60
2022-08-28T05:16:37.638Z,19.50
2022-08-28T05:22:14.031Z,19.90
2022-08-28T05:24:57.223Z,19.30
2022-08-28T05:27:45.623Z,19.50
2022-08-28T05:30:14.508Z,19.60
2022-08-28T05:32:47.553Z,19.60
2022-08-28T05:35:55.117Z,19.60
2022-08-28T05:38:41.817Z,19.50
2022-08-28T05:41:38.859Z,20.20
2022-08-28T05:44:44.059Z,19.10
2022-08-28T05:47:41.766Z,19.60
2022-08-28T05:53:56.519Z,19.60
2022-08-28T06:12:26.044Z,19.90
2022-08-28T06:14:53.288Z,19.80
2022-08-28T06:17:25.012Z,19.80
2022-08-28T06:19:53.026Z,19.80
2022-08-28T06:22:20.733Z,19.80
2022-08-28T06:24:50.463Z,19.80
2022-08-28T06:27:20.634Z,19.90
2022-08-28T06:29:48.062Z,19.90
2022-08-28T06:32:16.822Z,20.00
2022-08-28T06:34:44.176Z,20.00
2022-08-28T06:37:12.444Z,20.00
2022-08-28T06:39:39.747Z,20.00
2022-08-28T06:42:07.577Z,20.00
2022-08-28T06:44:39.161Z,20.00
2022-08-28T06:47:09.154Z,20.00
2022-08-28T06:49:38.141Z,20.10
2022-08-28T06:52:05.353Z,20.10
2022-08-28T06:54:34.769Z,20.10
2022-08-28T06:57:04.790Z,20.20
2022-08-28T06:59:31.972Z,20.20
2022-08-28T07:01:59.338Z,20.20
2022-08-28T07:04:28.256Z,20.30
2022-08-28T07:06:56.313Z,20.30
2022-08-28T07:09:24.798Z,20.40
2022-08-28T07:11:52.637Z,20.40
2022-08-28T07:14:23.617Z,20.40
2022-08-28T07:16:54.714Z,20.40
2022-08-28T07:22:27.508Z,20.50
2022-08-28T07:25:03.122Z,20.50
2022-08-28T07:27:31.604Z,20.50
2022-08-28T07:29:58.742Z,20.50
2022-08-28T07:32:40.274Z,20.50
2022-08-28T07:35:08.587Z,20.60
2022-08-28T07:37:40.931Z,20.60
2022-08-28T07:40:11.431Z,20.60
2022-08-28T07:42:59.128Z,20.60
2022-08-28T07:45:29.078Z,20.60
2022-08-28T07:48:48.162Z,20.70
2022-08-28T07:51:15.348Z,20.80
2022-08-28T07:53:42.654Z,20.80
2022-08-28T07:56:10.968Z,20.80
2022-08-28T07:58:38.935Z,20.90
2022-08-28T08:01:19.732Z,20.90
2022-08-28T08:03:47.433Z,20.90
2022-08-28T08:06:28.148Z,21.00
2022-08-28T08:09:01.472Z,21.00
2022-08-28T08:11:39.099Z,21.00
2022-08-28T08:14:06.429Z,21.00
2022-08-28T08:16:47.103Z,21.00
2022-08-28T08:19:15.587Z,21.10
2022-08-28T08:21:44.777Z,21.10
2022-08-28T08:24:19.811Z,21.20
2022-08-28T08:26:59.713Z,21.20
2022-08-28T08:29:35.953Z,21.20
2022-08-28T08:32:08.021Z,21.20
2022-08-28T08:34:39.165Z,21.30
2022-08-28T08:37:10.617Z,21.20
2022-08-28T08:39:41.805Z,21.20
2022-08-28T08:42:33.333Z,21.20
2022-08-28T08:45:07.628Z,21.30
2022-08-28T08:47:52.474Z,21.30
2022-08-28T08:50:42.765Z,21.40
2022-08-28T08:54:09.489Z,21.40
2022-08-28T08:57:12.178Z,21.50
2022-08-28T08:59:48.120Z,21.40
2022-08-28T09:02:34.898Z,21.60
2022-08-28T09:05:13.743Z,21.70
2022-08-28T09:07:55.473Z,21.60
2022-08-28T09:10:36.049Z,21.60
2022-08-28T09:13:37.138Z,21.60
2022-08-28T09:16:26.284Z,21.70
2022-08-28T09:19:02.562Z,21.70
2022-08-28T09:21:37.114Z,21.80
2022-08-28T09:24:21.888Z,21.80
2022-08-28T09:27:39.360Z,21.60
2022-08-28T09:30:43.178Z,21.90
2022-08-28T09:43:13.601Z,22.30
2022-08-28T09:49:18.133Z,22.20
2022-08-28T09:52:04.544Z,22.20
2022-08-28T09:55:03.020Z,22.20
2022-08-28T10:00:54.747Z,22.30
2022-08-28T10:03:46.179Z,22.40
2022-08-28T10:06:45.814Z,22.20
2022-08-28T10:10:10.051Z,22.20
2022-08-28T10:13:07.064Z,22.20
2022-08-28T10:16:21.218Z,22.20
2022-08-28T10:19:16.213Z,22.10
2022-08-28T10:22:36.217Z,22.10
2022-08-28T10:25:51.138Z,22.50
2022-08-28T10:29:01.251Z,22.10
2022-08-28T10:31:59.549Z,22.10
2022-08-28T10:34:32.820Z,22.10
2022-08-28T10:37:41.657Z,22.10
2022-08-28T10:40:18.314Z,22.20
2022-08-28T10:42:55.964Z,22.30
2022-08-28T10:45:26.353Z,22.30
2022-08-28T10:48:00.493Z,22.20
2022-08-28T10:50:37.566Z,22.30
2022-08-28T10:53:10.590Z,22.20
2022-08-28T10:56:02.961Z,22.10
2022-08-28T10:58:34.806Z,21.90
2022-08-28T11:01:07.470Z,22.00
2022-08-28T11:03:43.077Z,21.90
2022-08-28T11:06:39.759Z,21.70
2022-08-28T11:09:27.337Z,21.70
2022-08-28T11:12:07.204Z,21.60
2022-08-28T11:14:48.429Z,20.90
2022-08-28T11:17:22.416Z,21.40
2022-08-28T11:20:25.233Z,21.40
2022-08-28T11:23:20.419Z,21.40
2022-08-28T11:25:57.668Z,21.40
2022-08-28T11:28:35.269Z,21.50
2022-08-28T11:31:05.810Z,21.60
2022-08-28T11:37:47.067Z,21.80
2022-08-28T11:40:30.627Z,21.90
2022-08-28T11:43:30.691Z,22.00
2022-08-28T11:46:01.060Z,22.00
2022-08-28T11:48:37.553Z,22.10
2022-08-28T11:51:31.788Z,22.30
2022-08-28T11:54:08.701Z,22.30
2022-08-28T11:57:08.299Z,22.20
2022-08-28T12:00:11.527Z,22.10
2022-08-28T12:02:39.385Z,22.00
2022-08-28T12:05:12.460Z,21.90
2022-08-28T12:07:45.380Z,21.90
2022-08-28T12:10:24.915Z,21.90
2022-08-28T12:13:02.522Z,21.80
2022-08-28T12:15:33.575Z,21.80
2022-08-28T12:18:05.120Z,21.70
2022-08-28T12:20:54.889Z,21.70
2022-08-28T12:23:30.098Z,21.60
2022-08-28T12:26:39.258Z,21.60
2022-08-28T12:29:34.951Z,21.60
2022-08-28T12:32:26.213Z,21.60
2022-08-28T12:35:44.771Z,21.70
2022-08-28T12:38:21.225Z,21.70
2022-08-28T12:41:18.777Z,21.60
2022-08-28T12:43:55.619Z,21.70
2022-08-28T12:46:43.359Z,21.70
2022-08-28T12:49:32.950Z,21.70
2022-08-28T12:53:06.001Z,21.70
2022-08-28T12:55:34.466Z,21.60
2022-08-28T12:59:17.920Z,21.60
2022-08-28T13:01:45.295Z,21.60
2022-08-28T13:04:40.006Z,21.60
2022-08-28T13:07:16.114Z,21.50
2022-08-28T13:10:06.254Z,21.50
2022-08-28T13:12:55.203Z,21.40
2022-08-28T13:16:07.515Z,21.10
2022-08-28T13:19:30.870Z,20.90
2022-08-28T13:25:08.114Z,20.60
2022-08-28T13:27:42.521Z,20.00
2022-08-28T13:30:20.269Z,20.50
2022-08-28T13:33:04.995Z,20.40
2022-08-28T13:35:42.921Z,20.40
2022-08-28T15:14:41.514Z,19.20
2022-08-28T15:17:24.052Z,19.20
2022-08-28T15:20:05.115Z,19.20
2022-08-28T15:22:35.406Z,19.10
2022-08-28T15:25:29.179Z,19.10
2022-08-28T15:27:57.599Z,19.20
2022-08-28T15:30:25.593Z,19.10
2022-08-28T15:33:06.666Z,19.10
2022-08-28T15:35:37.963Z,19.10
2022-08-28T15:38:13.593Z,19.00
2022-08-28T15:41:00.828Z,19.00
2022-08-28T15:43:28.309Z,19.00
2022-08-28T15:45:55.700Z,18.90
2022-08-28T15:48:24.992Z,19.00
2022-08-28T15:50:52.657Z,19.00
2022-08-28T15:53:19.870Z,19.10
2022-08-28T15:55:47.445Z,19.10
2022-08-28T15:58:15.010Z,19.10
2022-08-28T16:00:42.974Z,19.00
2022-08-28T16:03:10.177Z,19.10
2022-08-28T16:05:40.682Z,19.10
2022-08-28T16:08:10.639Z,19.10
2022-08-28T16:10:38.040Z,19.00
2022-08-28T16:13:06.882Z,19.00
2022-08-28T16:15:34.954Z,19.00
2022-08-28T16:21:38.151Z,19.00
2022-08-28T16:28:32.845Z,19.00
2022-08-28T16:31:07.571Z,18.90
2022-08-28T16:33:48.055Z,18.90
2022-08-28T16:36:15.477Z,19.00
2022-08-28T16:38:45.807Z,19.00
2022-08-28T16:41:19.662Z,18.90
2022-08-28T16:43:54.480Z,18.90
2022-08-28T16:46:25.026Z,18.90
2022-08-28T16:48:59.613Z,18.90
2022-08-28T16:51:27.636Z,18.90
2022-08-28T16:54:04.480Z,19.00
2022-08-28T16:56:33.684Z,18.90
2022-08-28T16:59:01.922Z,18.90
2022-08-28T17:01:30.722Z,19.00
2022-08-28T17:03:59.292Z,19.00
2022-08-28T17:06:31.703Z,19.00
2022-08-28T17:08:59.645Z,18.90
2022-08-28T17:12:20.274Z,19.00
2022-08-28T17:14:48.493Z,18.90
2022-08-28T17:17:16.530Z,18.90
2022-08-28T17:19:50.857Z,18.90
2022-08-28T17:22:36.684Z,18.90
2022-08-28T17:25:22.218Z,18.90
2022-08-28T17:27:50.535Z,18.90
2022-08-28T17:30:22.493Z,18.90
2022-08-28T17:32:50.996Z,18.90
2022-08-28T17:35:18.722Z,18.90
2022-08-28T17:37:46.769Z,18.80
2022-08-28T17:40:17.600Z,18.80
2022-08-28T17:42:48.294Z,18.80
2022-08-28T17:45:18.558Z,18.40
2022-08-28T17:47:46.494Z,18.80
2022-08-28T17:50:13.751Z,18.80
2022-08-28T17:52:56.078Z,18.80
2022-08-28T17:55:23.553Z,18.80
2022-08-28T17:57:51.964Z,18.70
2022-08-28T18:00:47.144Z,18.80
2022-08-28T18:03:15.939Z,18.70
2022-08-28T18:05:44.518Z,18.70
2022-08-28T18:08:30.973Z,18.70
2022-08-28T18:11:01.091Z,18.70
2022-08-28T19:39:21.066Z,18.80
2022-08-28T19:53:19.189Z,18.90
2022-08-28T19:57:07.039Z,19.00
2022-08-28T19:59:58.680Z,19.00
2022-08-28T20:02:43.590Z,19.00
2022-08-28T20:05:31.744Z,18.90
2022-08-28T20:08:35.741Z,18.80
2022-08-28T20:12:05.133Z,18.90
2022-08-28T20:18:03.587Z,18.80
2022-08-28T20:30:36.733Z,18.90
2022-08-28T20:33:24.041Z,18.80
2022-08-28T20:46:48.974Z,18.70
2022-08-28T20:49:27.205Z,18.80
2022-08-28T20:52:19.714Z,18.70
2022-08-28T20:55:27.281Z,18.70
2022-08-28T20:58:13.905Z,18.70
2022-08-28T21:00:59.445Z,18.60
2022-08-28T21:23:06.311Z,18.50
2022-08-28T21:26:38.382Z,18.50
2022-08-28T21:32:10.575Z,18.50
2022-08-28T21:38:44.249Z,18.40
2022-08-28T21:44:32.949Z,18.30
2022-08-28T21:47:18.218Z,18.30
2022-08-28T21:56:03.375Z,18.20
2022-08-28T21:59:01.781Z,18.20
2022-08-28T22:01:47.225Z,18.20
2022-08-28T22:07:45.269Z,18.10
2022-08-28T22:10:43.440Z,18.10
2022-08-28T22:14:22.209Z,18.10
2022-08-28T22:16:54.199Z,17.30
2022-08-28T22:26:38.669Z,17.80
2022-08-28T22:48:30.356Z,17.40
2022-08-28T23:04:46.174Z,17.30
2022-08-28T23:07:30.949Z,17.10
2022-08-28T23:21:02.567Z,17.00
2022-08-28T23:32:16.369Z,17.00
2022-08-28T23:42:23.941Z,16.70
